sensor_id;sensor_type;location;lat;lon;timestamp;P1;durP1;ratioP1;P2;durP2;ratioP2
23252;SDS011;11795;47.054;15.408;2023-06-01T00:00:00;7.5;;;6.8;;
23252;SDS011;11795;47.054;15.408;2023-06-01T00:02:00;8.4;;;7.0;;
23252;SDS011;11795;47.054;15.408;2023-06-01T00:04:00;8.4;;;7.0;;
23252;SDS011;11795;47.054;15.408;2023-06-01T00:06:00;8.3;;;6.8;;
23252;SDS011;11795;47.054;15.408;2023-06-01T00:08:00;8.3;;;6.8;;
23252;SDS011;11795;47.054;15.408;2023-06-01T00:10:00;8.3;;;6.8;;
23252;SDS011;11795;47.054;15.408;2023-06-01T00:12:00;7.9;;;6.4;;
23252;SDS011;11795;47.054;15.408;2023-06-01T00:14:00;7.9;;;6.4;;
23252;SDS011;11795;47.054;15.408;2023-06-01T00:16:00;7.2;;;6.3;;
23252;SDS011;11795;47.054;15.408;2023-06-01T00:18:01;7.2;;;6.3;;
23252;SDS011;11795;47.054;15.408;2023-06-01T00:20:01;7.2;;;6.3;;
23252;SDS011;11795;47.054;15.408;2023-06-01T00:22:00;7.3;;;5.9;;
23252;SDS011;11795;47.054;15.408;2023-06-01T00:24:00;7.3;;;5.9;;
23252;SDS011;11795;47.054;15.408;2023-06-01T00:26:00;7.1;;;6.4;;
23252;SDS011;11795;47.054;15.408;2023-06-01T00:28:02;7.1;;;6.4;;
23252;SDS011;11795;47.054;15.408;2023-06-01T00:30:00;7.1;;;6.4;;
23252;SDS011;11795;47.054;15.408;2023-06-01T00:32:00;6.9;;;6.2;;
23252;SDS011;11795;47.054;15.408;2023-06-01T00:34:00;6.9;;;6.2;;
23252;SDS011;11795;47.054;15.408;2023-06-01T00:36:00;7.2;;;6.5;;
23252;SDS011;11795;47.054;15.408;2023-06-01T00:38:00;7.2;;;6.5;;
23252;SDS011;11795;47.054;15.408;2023-06-01T00:40:00;7.2;;;6.5;;
23252;SDS011;11795;47.054;15.408;2023-06-01T00:42:02;6.6;;;5.9;;
23252;SDS011;11795;47.054;15.408;2023-06-01T00:44:00;6.6;;;5.9;;
23252;SDS011;11795;47.054;15.408;2023-06-01T00:46:00;7.4;;;6.4;;
23252;SDS011;11795;47.054;15.408;2023-06-01T00:48:00;7.4;;;6.4;;
23252;SDS011;11795;47.054;15.408;2023-06-01T00:50:00;7.4;;;6.4;;
23252;SDS011;11795;47.054;15.408;2023-06-01T00:52:00;7.6;;;6.8;;
23252;SDS011;11795;47.054;15.408;2023-06-01T00:54:00;7.6;;;6.8;;
23252;SDS011;11795;47.054;15.408;2023-06-01T00:56:00;6.5;;;5.9;;
23252;SDS011;11795;47.054;15.408;2023-06-01T00:58:00;6.5;;;5.9;;
23252;SDS011;11795;47.054;15.408;2023-06-01T01:00:01;6.5;;;5.9;;
23252;SDS011;11795;47.054;15.408;2023-06-01T01:02:00;6.9;;;6.2;;
23252;SDS011;11795;47.054;15.408;2023-06-01T01:04:00;6.9;;;6.2;;
23252;SDS011;11795;47.054;15.408;2023-06-01T01:06:04;6.7;;;6.0;;
23252;SDS011;11795;47.054;15.408;2023-06-01T01:08:04;6.7;;;6.0;;
23252;SDS011;11795;47.054;15.408;2023-06-01T01:10:03;6.7;;;6.0;;
23252;SDS011;11795;47.054;15.408;2023-06-01T01:12:02;7.0;;;6.3;;
23252;SDS011;11795;47.054;15.408;2023-06-01T01:14:01;7.0;;;6.3;;
23252;SDS011;11795;47.054;15.408;2023-06-01T01:16:02;8.0;;;6.7;;
23252;SDS011;11795;47.054;15.408;2023-06-01T01:18:02;8.0;;;6.7;;
23252;SDS011;11795;47.054;15.408;2023-06-01T01:20:02;8.0;;;6.7;;
23252;SDS011;11795;47.054;15.408;2023-06-01T01:22:07;6.5;;;5.8;;
23252;SDS011;11795;47.054;15.408;2023-06-01T01:26:08;7.0;;;6.3;;
23252;SDS011;11795;47.054;15.408;2023-06-01T01:28:06;7.0;;;6.3;;
23252;SDS011;11795;47.054;15.408;2023-06-01T01:30:01;7.0;;;6.3;;
23252;SDS011;11795;47.054;15.408;2023-06-01T01:32:00;7.2;;;6.5;;
23252;SDS011;11795;47.054;15.408;2023-06-01T01:34:01;7.2;;;6.5;;
23252;SDS011;11795;47.054;15.408;2023-06-01T01:36:00;7.1;;;6.4;;
23252;SDS011;11795;47.054;15.408;2023-06-01T01:38:00;7.1;;;6.4;;
23252;SDS011;11795;47.054;15.408;2023-06-01T01:40:00;7.1;;;6.4;;
23252;SDS011;11795;47.054;15.408;2023-06-01T01:42:00;7.0;;;6.3;;
23252;SDS011;11795;47.054;15.408;2023-06-01T01:44:00;7.0;;;6.3;;
23252;SDS011;11795;47.054;15.408;2023-06-01T01:46:03;7.0;;;6.3;;
23252;SDS011;11795;47.054;15.408;2023-06-01T01:48:03;7.1;;;6.4;;
23252;SDS011;11795;47.054;15.408;2023-06-01T01:50:02;7.1;;;6.4;;
23252;SDS011;11795;47.054;15.408;2023-06-01T01:52:03;6.2;;;5.6;;
23252;SDS011;11795;47.054;15.408;2023-06-01T01:54:00;6.2;;;5.6;;
23252;SDS011;11795;47.054;15.408;2023-06-01T01:56:00;6.2;;;5.6;;
23252;SDS011;11795;47.054;15.408;2023-06-01T01:58:00;7.6;;;6.7;;
23252;SDS011;11795;47.054;15.408;2023-06-01T02:00:00;7.6;;;6.7;;
23252;SDS011;11795;47.054;15.408;2023-06-01T02:02:00;7.1;;;6.4;;
23252;SDS011;11795;47.054;15.408;2023-06-01T02:04:01;7.1;;;6.4;;
23252;SDS011;11795;47.054;15.408;2023-06-01T02:06:00;7.1;;;6.4;;
23252;SDS011;11795;47.054;15.408;2023-06-01T02:08:02;8.2;;;6.6;;
23252;SDS011;11795;47.054;15.408;2023-06-01T02:10:00;8.2;;;6.6;;
23252;SDS011;11795;47.054;15.408;2023-06-01T02:12:00;7.4;;;6.6;;
23252;SDS011;11795;47.054;15.408;2023-06-01T02:14:00;7.4;;;6.6;;
23252;SDS011;11795;47.054;15.408;2023-06-01T02:16:00;7.4;;;6.6;;
23252;SDS011;11795;47.054;15.408;2023-06-01T02:18:00;7.9;;;6.8;;
23252;SDS011;11795;47.054;15.408;2023-06-01T02:20:00;7.9;;;6.8;;
23252;SDS011;11795;47.054;15.408;2023-06-01T02:22:00;8.6;;;6.5;;
23252;SDS011;11795;47.054;15.408;2023-06-01T02:24:04;8.6;;;6.5;;
23252;SDS011;11795;47.054;15.408;2023-06-01T02:26:00;8.6;;;6.5;;
23252;SDS011;11795;47.054;15.408;2023-06-01T02:28:00;7.1;;;6.4;;
23252;SDS011;11795;47.054;15.408;2023-06-01T02:30:00;7.1;;;6.4;;
23252;SDS011;11795;47.054;15.408;2023-06-01T02:32:00;7.1;;;6.4;;
23252;SDS011;11795;47.054;15.408;2023-06-01T02:34:00;7.1;;;6.4;;
23252;SDS011;11795;47.054;15.408;2023-06-01T02:36:00;7.1;;;6.4;;
23252;SDS011;11795;47.054;15.408;2023-06-01T02:38:00;7.0;;;6.3;;
23252;SDS011;11795;47.054;15.408;2023-06-01T02:40:00;7.0;;;6.3;;
23252;SDS011;11795;47.054;15.408;2023-06-01T02:42:00;7.2;;;6.5;;
23252;SDS011;11795;47.054;15.408;2023-06-01T02:44:00;7.2;;;6.5;;
23252;SDS011;11795;47.054;15.408;2023-06-01T02:46:00;7.2;;;6.5;;
23252;SDS011;11795;47.054;15.408;2023-06-01T02:48:00;7.9;;;7.1;;
23252;SDS011;11795;47.054;15.408;2023-06-01T02:50:00;7.9;;;7.1;;
23252;SDS011;11795;47.054;15.408;2023-06-01T02:52:00;8.3;;;6.8;;
23252;SDS011;11795;47.054;15.408;2023-06-01T02:54:00;8.3;;;6.8;;
23252;SDS011;11795;47.054;15.408;2023-06-01T02:56:00;8.3;;;6.8;;
23252;SDS011;11795;47.054;15.408;2023-06-01T02:58:00;7.9;;;6.9;;
23252;SDS011;11795;47.054;15.408;2023-06-01T03:00:01;7.9;;;6.9;;
23252;SDS011;11795;47.054;15.408;2023-06-01T03:02:00;9.0;;;7.2;;
23252;SDS011;11795;47.054;15.408;2023-06-01T03:04:03;9.0;;;7.2;;
23252;SDS011;11795;47.054;15.408;2023-06-01T03:06:02;9.0;;;7.2;;
23252;SDS011;11795;47.054;15.408;2023-06-01T03:08:00;8.2;;;7.4;;
23252;SDS011;11795;47.054;15.408;2023-06-01T03:10:00;8.2;;;7.4;;
23252;SDS011;11795;47.054;15.408;2023-06-01T03:12:01;8.2;;;7.4;;
23252;SDS011;11795;47.054;15.408;2023-06-01T03:14:00;8.2;;;7.4;;
23252;SDS011;11795;47.054;15.408;2023-06-01T03:16:00;8.2;;;7.4;;
23252;SDS011;11795;47.054;15.408;2023-06-01T03:18:01;7.9;;;6.8;;
23252;SDS011;11795;47.054;15.408;2023-06-01T03:20:00;7.9;;;6.8;;
23252;SDS011;11795;47.054;15.408;2023-06-01T03:22:00;7.4;;;6.7;;
23252;SDS011;11795;47.054;15.408;2023-06-01T03:24:00;7.4;;;6.7;;
23252;SDS011;11795;47.054;15.408;2023-06-01T03:26:00;7.4;;;6.7;;
23252;SDS011;11795;47.054;15.408;2023-06-01T03:28:00;8.4;;;7.2;;
23252;SDS011;11795;47.054;15.408;2023-06-01T03:30:01;8.4;;;7.2;;
23252;SDS011;11795;47.054;15.408;2023-06-01T03:32:00;8.2;;;7.1;;
23252;SDS011;11795;47.054;15.408;2023-06-01T03:34:00;8.2;;;7.1;;
23252;SDS011;11795;47.054;15.408;2023-06-01T03:36:00;8.2;;;7.1;;
23252;SDS011;11795;47.054;15.408;2023-06-01T03:38:00;10.1;;;7.5;;
23252;SDS011;11795;47.054;15.408;2023-06-01T03:40:00;10.1;;;7.5;;
23252;SDS011;11795;47.054;15.408;2023-06-01T03:42:00;7.9;;;7.1;;
23252;SDS011;11795;47.054;15.408;2023-06-01T03:44:00;7.9;;;7.1;;
23252;SDS011;11795;47.054;15.408;2023-06-01T03:46:00;7.9;;;7.1;;
23252;SDS011;11795;47.054;15.408;2023-06-01T03:48:00;9.1;;;7.1;;
23252;SDS011;11795;47.054;15.408;2023-06-01T03:50:01;9.1;;;7.1;;
23252;SDS011;11795;47.054;15.408;2023-06-01T03:52:00;8.5;;;7.6;;
23252;SDS011;11795;47.054;15.408;2023-06-01T03:54:00;8.5;;;7.6;;
23252;SDS011;11795;47.054;15.408;2023-06-01T03:56:01;8.5;;;7.6;;
23252;SDS011;11795;47.054;15.408;2023-06-01T03:58:02;9.1;;;7.6;;
23252;SDS011;11795;47.054;15.408;2023-06-01T04:00:01;9.1;;;7.6;;
23252;SDS011;11795;47.054;15.408;2023-06-01T04:02:03;9.3;;;7.9;;
23252;SDS011;11795;47.054;15.408;2023-06-01T04:04:00;9.3;;;7.9;;
23252;SDS011;11795;47.054;15.408;2023-06-01T04:06:02;9.3;;;7.9;;
23252;SDS011;11795;47.054;15.408;2023-06-01T04:08:00;8.0;;;7.2;;
23252;SDS011;11795;47.054;15.408;2023-06-01T04:10:00;8.0;;;7.2;;
23252;SDS011;11795;47.054;15.408;2023-06-01T04:12:03;10.7;;;7.8;;
23252;SDS011;11795;47.054;15.408;2023-06-01T04:14:00;10.7;;;7.8;;
23252;SDS011;11795;47.054;15.408;2023-06-01T04:16:00;10.7;;;7.8;;
23252;SDS011;11795;47.054;15.408;2023-06-01T04:18:00;9.3;;;7.7;;
23252;SDS011;11795;47.054;15.408;2023-06-01T04:20:00;9.3;;;7.7;;
23252;SDS011;11795;47.054;15.408;2023-06-01T04:22:00;9.4;;;7.1;;
23252;SDS011;11795;47.054;15.408;2023-06-01T04:24:00;9.4;;;7.1;;
23252;SDS011;11795;47.054;15.408;2023-06-01T04:26:00;9.4;;;7.1;;
23252;SDS011;11795;47.054;15.408;2023-06-01T04:28:00;8.4;;;6.9;;
23252;SDS011;11795;47.054;15.408;2023-06-01T04:30:01;8.4;;;6.9;;
23252;SDS011;11795;47.054;15.408;2023-06-01T04:32:00;10.0;;;7.2;;
23252;SDS011;11795;47.054;15.408;2023-06-01T04:34:01;10.0;;;7.2;;
23252;SDS011;11795;47.054;15.408;2023-06-01T04:36:01;10.0;;;7.2;;
23252;SDS011;11795;47.054;15.408;2023-06-01T04:38:01;9.6;;;8.5;;
23252;SDS011;11795;47.054;15.408;2023-06-01T04:40:00;9.6;;;8.5;;
23252;SDS011;11795;47.054;15.408;2023-06-01T04:42:02;10.4;;;8.1;;
23252;SDS011;11795;47.054;15.408;2023-06-01T04:44:00;10.4;;;8.1;;
23252;SDS011;11795;47.054;15.408;2023-06-01T04:46:04;10.4;;;8.1;;
23252;SDS011;11795;47.054;15.408;2023-06-01T04:48:00;9.3;;;8.2;;
23252;SDS011;11795;47.054;15.408;2023-06-01T04:50:01;9.3;;;8.2;;
23252;SDS011;11795;47.054;15.408;2023-06-01T04:52:00;9.0;;;7.7;;
23252;SDS011;11795;47.054;15.408;2023-06-01T04:54:00;9.0;;;7.7;;
23252;SDS011;11795;47.054;15.408;2023-06-01T04:56:00;9.0;;;7.7;;
23252;SDS011;11795;47.054;15.408;2023-06-01T04:58:00;7.9;;;6.7;;
23252;SDS011;11795;47.054;15.408;2023-06-01T05:00:00;7.9;;;6.7;;
23252;SDS011;11795;47.054;15.408;2023-06-01T05:02:00;10.8;;;8.7;;
23252;SDS011;11795;47.054;15.408;2023-06-01T05:04:00;10.8;;;8.7;;
23252;SDS011;11795;47.054;15.408;2023-06-01T05:06:00;10.8;;;8.7;;
23252;SDS011;11795;47.054;15.408;2023-06-01T05:08:00;9.3;;;7.9;;
23252;SDS011;11795;47.054;15.408;2023-06-01T05:10:06;9.3;;;7.9;;
23252;SDS011;11795;47.054;15.408;2023-06-01T05:12:00;8.6;;;7.6;;
23252;SDS011;11795;47.054;15.408;2023-06-01T05:14:02;8.6;;;7.6;;
23252;SDS011;11795;47.054;15.408;2023-06-01T05:16:00;8.6;;;7.6;;
23252;SDS011;11795;47.054;15.408;2023-06-01T05:18:00;8.4;;;7.6;;
23252;SDS011;11795;47.054;15.408;2023-06-01T05:20:00;8.4;;;7.6;;
23252;SDS011;11795;47.054;15.408;2023-06-01T05:22:00;7.9;;;7.1;;
23252;SDS011;11795;47.054;15.408;2023-06-01T05:24:00;7.9;;;7.1;;
23252;SDS011;11795;47.054;15.408;2023-06-01T05:26:02;7.9;;;7.1;;
23252;SDS011;11795;47.054;15.408;2023-06-01T05:28:00;8.9;;;7.2;;
23252;SDS011;11795;47.054;15.408;2023-06-01T05:30:00;8.9;;;7.2;;
23252;SDS011;11795;47.054;15.408;2023-06-01T05:32:00;9.7;;;7.7;;
23252;SDS011;11795;47.054;15.408;2023-06-01T05:34:00;9.7;;;7.7;;
23252;SDS011;11795;47.054;15.408;2023-06-01T05:36:00;9.7;;;7.7;;
23252;SDS011;11795;47.054;15.408;2023-06-01T05:38:00;10.1;;;8.2;;
23252;SDS011;11795;47.054;15.408;2023-06-01T05:40:00;10.1;;;8.2;;
23252;SDS011;11795;47.054;15.408;2023-06-01T05:42:00;9.9;;;7.9;;
23252;SDS011;11795;47.054;15.408;2023-06-01T05:44:00;9.9;;;7.9;;
23252;SDS011;11795;47.054;15.408;2023-06-01T05:46:00;9.9;;;7.9;;
23252;SDS011;11795;47.054;15.408;2023-06-01T05:48:00;11.5;;;8.2;;
23252;SDS011;11795;47.054;15.408;2023-06-01T05:50:00;11.5;;;8.2;;
23252;SDS011;11795;47.054;15.408;2023-06-01T05:52:00;9.2;;;7.1;;
23252;SDS011;11795;47.054;15.408;2023-06-01T05:54:00;9.2;;;7.1;;
23252;SDS011;11795;47.054;15.408;2023-06-01T05:56:00;9.2;;;7.1;;
23252;SDS011;11795;47.054;15.408;2023-06-01T05:58:00;9.8;;;7.1;;
23252;SDS011;11795;47.054;15.408;2023-06-01T06:00:00;9.8;;;7.1;;
23252;SDS011;11795;47.054;15.408;2023-06-01T06:02:00;10.2;;;8.2;;
23252;SDS011;11795;47.054;15.408;2023-06-01T06:04:00;10.2;;;8.2;;
23252;SDS011;11795;47.054;15.408;2023-06-01T06:06:00;10.2;;;8.2;;
23252;SDS011;11795;47.054;15.408;2023-06-01T06:08:01;9.7;;;6.7;;
23252;SDS011;11795;47.054;15.408;2023-06-01T06:10:00;9.7;;;6.7;;
23252;SDS011;11795;47.054;15.408;2023-06-01T06:12:01;9.3;;;8.3;;
23252;SDS011;11795;47.054;15.408;2023-06-01T06:14:00;9.3;;;8.3;;
23252;SDS011;11795;47.054;15.408;2023-06-01T06:16:00;9.3;;;8.3;;
23252;SDS011;11795;47.054;15.408;2023-06-01T06:18:00;11.7;;;7.2;;
23252;SDS011;11795;47.054;15.408;2023-06-01T06:20:00;11.7;;;7.2;;
23252;SDS011;11795;47.054;15.408;2023-06-01T06:22:00;10.5;;;6.7;;
23252;SDS011;11795;47.054;15.408;2023-06-01T06:24:00;10.5;;;6.7;;
23252;SDS011;11795;47.054;15.408;2023-06-01T06:26:00;10.5;;;6.7;;
23252;SDS011;11795;47.054;15.408;2023-06-01T06:28:00;10.4;;;7.3;;
23252;SDS011;11795;47.054;15.408;2023-06-01T06:30:00;10.4;;;7.3;;
23252;SDS011;11795;47.054;15.408;2023-06-01T06:32:00;10.4;;;7.3;;
23252;SDS011;11795;47.054;15.408;2023-06-01T06:34:00;9.0;;;7.2;;
23252;SDS011;11795;47.054;15.408;2023-06-01T06:36:00;9.0;;;7.2;;
23252;SDS011;11795;47.054;15.408;2023-06-01T06:38:01;11.2;;;7.2;;
23252;SDS011;11795;47.054;15.408;2023-06-01T06:40:00;11.2;;;7.2;;
23252;SDS011;11795;47.054;15.408;2023-06-01T06:42:02;11.2;;;7.2;;
23252;SDS011;11795;47.054;15.408;2023-06-01T06:44:00;11.1;;;6.8;;
23252;SDS011;11795;47.054;15.408;2023-06-01T06:46:00;11.1;;;6.8;;
23252;SDS011;11795;47.054;15.408;2023-06-01T06:48:00;8.7;;;6.8;;
23252;SDS011;11795;47.054;15.408;2023-06-01T06:50:01;8.7;;;6.8;;
23252;SDS011;11795;47.054;15.408;2023-06-01T06:52:00;8.7;;;6.8;;
23252;SDS011;11795;47.054;15.408;2023-06-01T06:54:02;8.9;;;6.9;;
23252;SDS011;11795;47.054;15.408;2023-06-01T06:56:00;8.9;;;6.9;;
23252;SDS011;11795;47.054;15.408;2023-06-01T06:58:00;8.5;;;6.8;;
23252;SDS011;11795;47.054;15.408;2023-06-01T07:00:00;8.5;;;6.8;;
23252;SDS011;11795;47.054;15.408;2023-06-01T07:02:00;8.5;;;6.8;;
23252;SDS011;11795;47.054;15.408;2023-06-01T07:04:00;8.1;;;6.0;;
23252;SDS011;11795;47.054;15.408;2023-06-01T07:06:00;8.1;;;6.0;;
23252;SDS011;11795;47.054;15.408;2023-06-01T07:08:01;8.1;;;6.2;;
23252;SDS011;11795;47.054;15.408;2023-06-01T07:10:00;8.1;;;6.2;;
23252;SDS011;11795;47.054;15.408;2023-06-01T07:12:00;8.1;;;6.2;;
23252;SDS011;11795;47.054;15.408;2023-06-01T07:14:00;7.0;;;5.4;;
23252;SDS011;11795;47.054;15.408;2023-06-01T07:16:00;7.0;;;5.4;;
23252;SDS011;11795;47.054;15.408;2023-06-01T07:18:00;6.5;;;4.4;;
23252;SDS011;11795;47.054;15.408;2023-06-01T07:20:01;6.5;;;4.4;;
23252;SDS011;11795;47.054;15.408;2023-06-01T07:22:00;6.5;;;4.4;;
23252;SDS011;11795;47.054;15.408;2023-06-01T07:24:01;7.7;;;5.0;;
23252;SDS011;11795;47.054;15.408;2023-06-01T07:26:00;7.7;;;5.0;;
23252;SDS011;11795;47.054;15.408;2023-06-01T07:28:07;7.0;;;5.0;;
23252;SDS011;11795;47.054;15.408;2023-06-01T07:30:00;7.0;;;5.0;;
23252;SDS011;11795;47.054;15.408;2023-06-01T07:32:00;7.0;;;5.0;;
23252;SDS011;11795;47.054;15.408;2023-06-01T07:34:00;5.7;;;4.3;;
23252;SDS011;11795;47.054;15.408;2023-06-01T07:36:00;5.7;;;4.3;;
23252;SDS011;11795;47.054;15.408;2023-06-01T07:38:00;6.9;;;4.6;;
23252;SDS011;11795;47.054;15.408;2023-06-01T07:40:00;6.9;;;4.6;;
23252;SDS011;11795;47.054;15.408;2023-06-01T07:42:01;6.9;;;4.6;;
23252;SDS011;11795;47.054;15.408;2023-06-01T07:44:00;8.9;;;4.6;;
23252;SDS011;11795;47.054;15.408;2023-06-01T07:46:00;8.9;;;4.6;;
23252;SDS011;11795;47.054;15.408;2023-06-01T07:48:01;7.8;;;4.6;;
23252;SDS011;11795;47.054;15.408;2023-06-01T07:50:00;7.8;;;4.6;;
23252;SDS011;11795;47.054;15.408;2023-06-01T07:52:01;7.8;;;4.6;;
23252;SDS011;11795;47.054;15.408;2023-06-01T07:54:01;5.3;;;4.1;;
23252;SDS011;11795;47.054;15.408;2023-06-01T07:56:01;5.3;;;4.1;;
23252;SDS011;11795;47.054;15.408;2023-06-01T07:58:00;6.7;;;4.2;;
23252;SDS011;11795;47.054;15.408;2023-06-01T08:00:01;6.7;;;4.2;;
23252;SDS011;11795;47.054;15.408;2023-06-01T08:02:00;6.7;;;4.2;;
23252;SDS011;11795;47.054;15.408;2023-06-01T08:04:02;7.8;;;4.3;;
23252;SDS011;11795;47.054;15.408;2023-06-01T08:06:04;7.8;;;4.3;;
23252;SDS011;11795;47.054;15.408;2023-06-01T08:08:00;9.1;;;4.9;;
23252;SDS011;11795;47.054;15.408;2023-06-01T08:10:01;9.1;;;4.9;;
23252;SDS011;11795;47.054;15.408;2023-06-01T08:12:00;9.1;;;4.9;;
23252;SDS011;11795;47.054;15.408;2023-06-01T08:14:02;6.2;;;4.2;;
23252;SDS011;11795;47.054;15.408;2023-06-01T08:16:00;6.2;;;4.2;;
23252;SDS011;11795;47.054;15.408;2023-06-01T08:18:00;6.6;;;4.5;;
23252;SDS011;11795;47.054;15.408;2023-06-01T08:20:00;6.6;;;4.5;;
23252;SDS011;11795;47.054;15.408;2023-06-01T08:22:00;6.6;;;4.5;;
23252;SDS011;11795;47.054;15.408;2023-06-01T08:24:01;6.9;;;4.8;;
23252;SDS011;11795;47.054;15.408;2023-06-01T08:26:00;6.9;;;4.8;;
23252;SDS011;11795;47.054;15.408;2023-06-01T08:28:00;8.0;;;5.1;;
23252;SDS011;11795;47.054;15.408;2023-06-01T08:30:00;8.0;;;5.1;;
23252;SDS011;11795;47.054;15.408;2023-06-01T08:32:00;8.0;;;5.1;;
23252;SDS011;11795;47.054;15.408;2023-06-01T08:34:00;7.4;;;4.7;;
23252;SDS011;11795;47.054;15.408;2023-06-01T08:36:00;7.4;;;4.7;;
23252;SDS011;11795;47.054;15.408;2023-06-01T08:38:00;8.0;;;4.8;;
23252;SDS011;11795;47.054;15.408;2023-06-01T08:40:00;8.0;;;4.8;;
23252;SDS011;11795;47.054;15.408;2023-06-01T08:42:03;8.0;;;4.8;;
23252;SDS011;11795;47.054;15.408;2023-06-01T08:44:02;7.2;;;4.7;;
23252;SDS011;11795;47.054;15.408;2023-06-01T08:46:01;7.2;;;4.7;;
23252;SDS011;11795;47.054;15.408;2023-06-01T08:48:00;7.8;;;4.8;;
23252;SDS011;11795;47.054;15.408;2023-06-01T08:50:00;7.8;;;4.8;;
23252;SDS011;11795;47.054;15.408;2023-06-01T08:52:02;7.8;;;4.8;;
23252;SDS011;11795;47.054;15.408;2023-06-01T08:54:00;7.2;;;4.5;;
23252;SDS011;11795;47.054;15.408;2023-06-01T08:56:00;7.2;;;4.5;;
23252;SDS011;11795;47.054;15.408;2023-06-01T08:58:00;6.9;;;4.7;;
23252;SDS011;11795;47.054;15.408;2023-06-01T09:00:00;6.9;;;4.7;;
23252;SDS011;11795;47.054;15.408;2023-06-01T09:02:00;6.9;;;4.7;;
23252;SDS011;11795;47.054;15.408;2023-06-01T09:04:00;6.6;;;5.0;;
23252;SDS011;11795;47.054;15.408;2023-06-01T09:06:00;6.6;;;5.0;;
23252;SDS011;11795;47.054;15.408;2023-06-01T09:08:00;7.2;;;4.6;;
23252;SDS011;11795;47.054;15.408;2023-06-01T09:10:00;7.2;;;4.6;;
23252;SDS011;11795;47.054;15.408;2023-06-01T09:14:00;5.4;;;4.5;;
23252;SDS011;11795;47.054;15.408;2023-06-01T09:16:00;5.4;;;4.5;;
23252;SDS011;11795;47.054;15.408;2023-06-01T09:18:04;7.1;;;4.6;;
23252;SDS011;11795;47.054;15.408;2023-06-01T09:20:00;7.1;;;4.6;;
23252;SDS011;11795;47.054;15.408;2023-06-01T09:22:00;7.1;;;4.6;;
23252;SDS011;11795;47.054;15.408;2023-06-01T09:26:03;6.7;;;4.3;;
23252;SDS011;11795;47.054;15.408;2023-06-01T09:28:00;7.9;;;4.5;;
23252;SDS011;11795;47.054;15.408;2023-06-01T09:30:00;7.9;;;4.5;;
23252;SDS011;11795;47.054;15.408;2023-06-01T09:32:00;7.9;;;4.5;;
23252;SDS011;11795;47.054;15.408;2023-06-01T09:34:01;5.8;;;4.3;;
23252;SDS011;11795;47.054;15.408;2023-06-01T09:36:00;5.8;;;4.3;;
23252;SDS011;11795;47.054;15.408;2023-06-01T09:38:03;7.1;;;4.7;;
23252;SDS011;11795;47.054;15.408;2023-06-01T09:40:00;7.1;;;4.7;;
23252;SDS011;11795;47.054;15.408;2023-06-01T09:42:02;7.1;;;4.7;;
23252;SDS011;11795;47.054;15.408;2023-06-01T09:44:00;6.5;;;4.3;;
23252;SDS011;11795;47.054;15.408;2023-06-01T09:46:04;6.5;;;4.3;;
23252;SDS011;11795;47.054;15.408;2023-06-01T09:50:03;6.3;;;4.6;;
23252;SDS011;11795;47.054;15.408;2023-06-01T09:52:08;6.3;;;4.6;;
23252;SDS011;11795;47.054;15.408;2023-06-01T09:54:00;7.7;;;5.0;;
23252;SDS011;11795;47.054;15.408;2023-06-01T09:56:00;7.7;;;5.0;;
23252;SDS011;11795;47.054;15.408;2023-06-01T10:00:00;6.0;;;4.5;;
23252;SDS011;11795;47.054;15.408;2023-06-01T10:02:00;6.0;;;4.5;;
23252;SDS011;11795;47.054;15.408;2023-06-01T10:04:00;7.0;;;4.5;;
23252;SDS011;11795;47.054;15.408;2023-06-01T10:06:00;7.0;;;4.5;;
23252;SDS011;11795;47.054;15.408;2023-06-01T10:08:00;5.2;;;4.5;;
23252;SDS011;11795;47.054;15.408;2023-06-01T10:10:02;5.2;;;4.5;;
23252;SDS011;11795;47.054;15.408;2023-06-01T10:12:01;5.2;;;4.5;;
23252;SDS011;11795;47.054;15.408;2023-06-01T10:14:00;6.2;;;4.5;;
23252;SDS011;11795;47.054;15.408;2023-06-01T10:16:00;6.2;;;4.5;;
23252;SDS011;11795;47.054;15.408;2023-06-01T10:18:00;8.8;;;5.2;;
23252;SDS011;11795;47.054;15.408;2023-06-01T10:20:01;8.8;;;5.2;;
23252;SDS011;11795;47.054;15.408;2023-06-01T10:22:01;8.8;;;5.2;;
23252;SDS011;11795;47.054;15.408;2023-06-01T10:24:00;6.4;;;4.6;;
23252;SDS011;11795;47.054;15.408;2023-06-01T10:26:04;6.4;;;4.6;;
23252;SDS011;11795;47.054;15.408;2023-06-01T10:28:01;6.4;;;4.6;;
23252;SDS011;11795;47.054;15.408;2023-06-01T10:30:00;6.2;;;4.8;;
23252;SDS011;11795;47.054;15.408;2023-06-01T10:32:00;6.2;;;4.8;;
23252;SDS011;11795;47.054;15.408;2023-06-01T10:34:00;7.9;;;4.9;;
23252;SDS011;11795;47.054;15.408;2023-06-01T10:36:01;7.9;;;4.9;;
23252;SDS011;11795;47.054;15.408;2023-06-01T10:40:09;7.4;;;4.7;;
23252;SDS011;11795;47.054;15.408;2023-06-01T10:44:00;6.8;;;4.6;;
23252;SDS011;11795;47.054;15.408;2023-06-01T10:46:00;6.8;;;4.6;;
23252;SDS011;11795;47.054;15.408;2023-06-01T10:48:00;6.8;;;4.6;;
23252;SDS011;11795;47.054;15.408;2023-06-01T10:50:08;7.1;;;4.8;;
23252;SDS011;11795;47.054;15.408;2023-06-01T11:02:03;5.9;;;4.5;;
23252;SDS011;11795;47.054;15.408;2023-06-01T11:04:00;7.2;;;4.8;;
23252;SDS011;11795;47.054;15.408;2023-06-01T11:06:00;7.2;;;4.8;;
23252;SDS011;11795;47.054;15.408;2023-06-01T11:08:00;7.2;;;4.8;;
23252;SDS011;11795;47.054;15.408;2023-06-01T11:10:00;6.1;;;4.5;;
23252;SDS011;11795;47.054;15.408;2023-06-01T11:12:01;6.1;;;4.5;;
23252;SDS011;11795;47.054;15.408;2023-06-01T11:14:05;5.8;;;4.4;;
23252;SDS011;11795;47.054;15.408;2023-06-01T11:20:01;6.8;;;4.3;;
23252;SDS011;11795;47.054;15.408;2023-06-01T11:22:03;6.8;;;4.3;;
23252;SDS011;11795;47.054;15.408;2023-06-01T11:24:03;5.8;;;4.6;;
23252;SDS011;11795;47.054;15.408;2023-06-01T11:26:00;5.8;;;4.6;;
23252;SDS011;11795;47.054;15.408;2023-06-01T11:28:00;5.8;;;4.6;;
23252;SDS011;11795;47.054;15.408;2023-06-01T11:30:00;7.8;;;4.5;;
23252;SDS011;11795;47.054;15.408;2023-06-01T11:32:01;7.8;;;4.5;;
23252;SDS011;11795;47.054;15.408;2023-06-01T11:34:00;6.8;;;4.4;;
23252;SDS011;11795;47.054;15.408;2023-06-01T11:36:01;6.8;;;4.4;;
23252;SDS011;11795;47.054;15.408;2023-06-01T11:38:00;6.8;;;4.4;;
23252;SDS011;11795;47.054;15.408;2023-06-01T11:40:04;6.7;;;4.6;;
23252;SDS011;11795;47.054;15.408;2023-06-01T11:42:03;6.7;;;4.6;;
23252;SDS011;11795;47.054;15.408;2023-06-01T11:44:00;6.5;;;4.4;;
23252;SDS011;11795;47.054;15.408;2023-06-01T11:46:00;6.5;;;4.4;;
23252;SDS011;11795;47.054;15.408;2023-06-01T11:48:09;6.5;;;4.4;;
23252;SDS011;11795;47.054;15.408;2023-06-01T11:50:00;5.1;;;4.3;;
23252;SDS011;11795;47.054;15.408;2023-06-01T11:52:00;5.1;;;4.3;;
23252;SDS011;11795;47.054;15.408;2023-06-01T11:54:00;5.6;;;4.8;;
23252;SDS011;11795;47.054;15.408;2023-06-01T11:56:02;5.6;;;4.8;;
23252;SDS011;11795;47.054;15.408;2023-06-01T11:58:00;5.6;;;4.8;;
23252;SDS011;11795;47.054;15.408;2023-06-01T12:00:00;6.3;;;4.4;;
23252;SDS011;11795;47.054;15.408;2023-06-01T12:02:00;6.3;;;4.4;;
23252;SDS011;11795;47.054;15.408;2023-06-01T12:04:02;5.9;;;4.4;;
23252;SDS011;11795;47.054;15.408;2023-06-01T12:06:00;5.9;;;4.4;;
23252;SDS011;11795;47.054;15.408;2023-06-01T12:08:00;5.9;;;4.4;;
23252;SDS011;11795;47.054;15.408;2023-06-01T12:10:01;6.1;;;4.8;;
23252;SDS011;11795;47.054;15.408;2023-06-01T12:12:00;6.1;;;4.8;;
23252;SDS011;11795;47.054;15.408;2023-06-01T12:14:01;7.5;;;4.8;;
23252;SDS011;11795;47.054;15.408;2023-06-01T12:16:00;7.5;;;4.8;;
23252;SDS011;11795;47.054;15.408;2023-06-01T12:18:00;7.5;;;4.8;;
23252;SDS011;11795;47.054;15.408;2023-06-01T12:20:00;8.0;;;5.0;;
23252;SDS011;11795;47.054;15.408;2023-06-01T12:22:00;8.0;;;5.0;;
23252;SDS011;11795;47.054;15.408;2023-06-01T12:24:00;9.1;;;5.1;;
23252;SDS011;11795;47.054;15.408;2023-06-01T12:26:00;9.1;;;5.1;;
23252;SDS011;11795;47.054;15.408;2023-06-01T12:28:01;9.1;;;5.1;;
23252;SDS011;11795;47.054;15.408;2023-06-01T12:30:00;5.2;;;4.3;;
23252;SDS011;11795;47.054;15.408;2023-06-01T12:32:00;5.2;;;4.3;;
23252;SDS011;11795;47.054;15.408;2023-06-01T12:34:00;5.4;;;4.6;;
23252;SDS011;11795;47.054;15.408;2023-06-01T12:36:00;5.4;;;4.6;;
23252;SDS011;11795;47.054;15.408;2023-06-01T12:38:02;5.4;;;4.6;;
23252;SDS011;11795;47.054;15.408;2023-06-01T12:40:00;8.3;;;4.6;;